Time;durP1;ratioP1;P1;durP2;ratioP2;P2;SDS_P1;SDS_P2;PMS_P1;PMS_P2;Temp;Humidity;BMP_temperature;BMP_pressure;BME280_temperature;BME280_humidity;BME280_pressure;Samples;Min_cycle;Max_cycle;Signal;HPM_P1;HPM_P2
2021/09/19 00:01:41;;;;;;;18.02;12.07;;;;;;;14.90;100.00;97370.91;5015181;28;20432;-81
2021/09/19 00:04:06;;;;;;;15.63;11.95;;;;;;;14.96;100.00;97383.88;5015056;28;20033;-82
2021/09/19 00:06:32;;;;;;;18.25;11.95;;;;;;;14.74;100.00;97342.66;5000537;28;20034;-81
2021/09/19 00:08:57;;;;;;;18.65;12.15;;;;;;;14.86;100.00;97355.16;5015063;28;20065;-82
2021/09/19 00:11:23;;;;;;;16.02;12.40;;;;;;;14.90;100.00;97361.97;5032565;28;20044;-81
2021/09/19 00:13:49;;;;;;;23.23;13.90;;;;;;;14.85;100.00;97377.66;4998297;28;20095;-82
2021/09/19 00:16:15;;;;;;;23.05;13.90;;;;;;;14.85;100.00;97361.50;4998393;28;20082;-82
2021/09/19 00:18:40;;;;;;;20.73;14.63;;;;;;;14.76;100.00;97343.41;4998143;28;20033;-81
2021/09/19 00:21:06;;;;;;;20.48;14.18;;;;;;;14.86;100.00;97350.59;5014438;28;20040;-82
2021/09/19 00:23:31;;;;;;;20.33;14.25;;;;;;;14.81;100.00;97362.72;5014565;28;20056;-81
2021/09/19 00:25:57;;;;;;;20.50;13.70;;;;;;;14.75;100.00;97349.75;4998278;28;20401;-81
2021/09/19 00:28:22;;;;;;;21.27;13.95;;;;;;;14.88;100.00;97372.03;5014557;28;20026;-81
2021/09/19 00:30:48;;;;;;;26.33;14.73;;;;;;;14.82;100.00;97375.22;4997967;28;20037;-81
2021/09/19 00:33:14;;;;;;;20.35;14.48;;;;;;;14.79;100.00;97364.69;5014760;28;20045;-81
2021/09/19 00:35:39;;;;;;;21.65;13.77;;;;;;;14.77;100.00;97353.19;5013897;28;20120;-81
2021/09/19 00:38:05;;;;;;;22.17;13.75;;;;;;;14.69;100.00;97321.50;5031689;28;20472;-81
2021/09/19 00:40:31;;;;;;;23.33;14.70;;;;;;;14.81;100.00;97351.94;4997169;28;20029;-81
2021/09/19 00:42:56;;;;;;;21.23;13.73;;;;;;;14.85;100.00;97353.44;5013481;28;20156;-81
2021/09/19 00:45:23;;;;;;;18.35;13.20;;;;;;;14.89;100.00;97350.34;5013682;28;20032;-81
2021/09/19 00:47:49;;;;;;;18.25;13.18;;;;;;;14.98;100.00;97346.88;4997128;28;20052;-81
2021/09/19 00:50:17;;;;;;;20.17;13.43;;;;;;;15.03;100.00;97342.00;5013483;28;20068;-81
2021/09/19 00:52:44;;;;;;;18.63;13.98;;;;;;;15.17;100.00;97351.59;5013364;28;20029;-81
2021/09/19 00:55:11;;;;;;;17.15;13.23;;;;;;;15.18;100.00;97342.53;5013578;28;20032;-81
2021/09/19 00:57:43;;;;;;;22.45;13.95;;;;;;;15.13;100.00;97325.91;5012965;28;20021;-81
2021/09/19 01:00:11;;;;;;;17.48;12.90;;;;;;;15.19;100.00;97339.72;5013528;28;20507;-81
2021/09/19 01:02:37;;;;;;;17.10;12.55;;;;;;;15.18;100.00;97339.84;5013184;28;20416;-81
2021/09/19 01:05:03;;;;;;;19.95;13.43;;;;;;;15.17;100.00;97341.69;4997030;28;20021;-81
2021/09/19 01:07:29;;;;;;;17.38;13.40;;;;;;;15.13;100.00;97331.31;5013358;28;20021;-81
2021/09/19 01:09:55;;;;;;;17.23;12.75;;;;;;;15.05;100.00;97321.16;4996891;28;20055;-81
2021/09/19 01:12:24;;;;;;;18.50;13.27;;;;;;;15.17;100.00;97348.91;5030709;28;20029;-81
2021/09/19 01:14:51;;;;;;;19.92;13.50;;;;;;;15.02;100.00;97307.09;5013378;28;21213;-81
2021/09/19 01:17:20;;;;;;;18.08;13.02;;;;;;;15.03;100.00;97298.88;4996821;28;20029;-81
2021/09/19 01:19:47;;;;;;;22.05;13.68;;;;;;;15.19;100.00;97325.41;4996519;28;20031;-81
2021/09/19 01:22:14;;;;;;;19.63;14.10;;;;;;;15.29;100.00;97350.56;5013023;28;20491;-81
2021/09/19 01:24:39;;;;;;;17.77;13.07;;;;;;;15.37;100.00;97355.31;5013068;28;20056;-81
2021/09/19 01:27:06;;;;;;;16.25;12.80;;;;;;;15.30;100.00;97337.97;5013190;28;20060;-81
2021/09/19 01:29:32;;;;;;;19.23;13.98;;;;;;;15.44;100.00;97335.78;5013285;28;20025;-81
2021/09/19 01:31:58;;;;;;;18.60;14.18;;;;;;;15.29;100.00;97320.91;4967245;28;1277910;-81
2021/09/19 01:34:25;;;;;;;19.48;14.05;;;;;;;15.28;100.00;97330.00;5000752;28;20036;-81
2021/09/19 01:36:51;;;;;;;21.05;13.63;;;;;;;15.28;100.00;97308.47;5017611;28;20048;-81
2021/09/19 01:39:16;;;;;;;19.65;13.95;;;;;;;15.35;100.00;97320.41;5001623;28;20385;-82
2021/09/19 01:41:42;;;;;;;21.15;14.52;;;;;;;15.38;100.00;97325.53;5001383;28;20036;-81
2021/09/19 01:44:08;;;;;;;24.30;14.93;;;;;;;15.17;100.00;97311.19;5035361;28;20029;-82
2021/09/19 01:46:36;;;;;;;19.65;15.23;;;;;;;15.23;100.00;97334.09;5017602;28;20026;-82
2021/09/19 01:49:03;;;;;;;20.15;14.75;;;;;;;15.07;100.00;97296.78;5034185;28;20021;-81
2021/09/19 01:51:29;;;;;;;21.33;14.60;;;;;;;15.11;100.00;97320.63;5001284;28;20017;-81
2021/09/19 01:53:54;;;;;;;24.73;15.07;;;;;;;15.01;100.00;97300.00;5017768;28;20484;-81
2021/09/19 01:56:21;;;;;;;21.98;14.85;;;;;;;14.77;100.00;97269.72;5035583;28;20021;-81
2021/09/19 01:58:49;;;;;;;32.03;14.73;;;;;;;14.96;100.00;97321.06;5016761;28;20108;-82
2021/09/19 02:01:15;;;;;;;21.88;14.65;;;;;;;14.75;100.00;97309.38;5017560;28;20028;-81
2021/09/19 02:03:42;;;;;;;23.85;13.50;;;;;;;14.76;100.00;97319.19;5017086;28;20021;-81
2021/09/19 02:06:08;;;;;;;21.38;14.02;;;;;;;14.65;100.00;97320.03;5017191;28;20088;-81
2021/09/19 02:08:37;;;;;;;23.08;13.68;;;;;;;14.45;100.00;97302.84;5000855;28;20032;-81
2021/09/19 02:11:04;;;;;;;19.70;14.10;;;;;;;14.36;100.00;97308.97;5000901;28;20029;-81
2021/09/19 02:13:30;;;;;;;21.25;15.13;;;;;;;14.10;100.00;97272.50;5017535;28;20108;-82
2021/09/19 02:15:55;;;;;;;23.92;14.13;;;;;;;14.23;100.00;97302.84;5017074;28;20121;-82
2021/09/19 02:18:21;;;;;;;23.67;15.73;;;;;;;14.03;100.00;97277.53;5017237;28;20030;-82
2021/09/19 02:20:47;;;;;;;22.52;15.07;;;;;;;14.23;100.00;97323.50;5034464;28;20059;-82
2021/09/19 02:23:12;;;;;;;22.52;15.57;;;;;;;14.07;100.00;97324.72;5034317;28;20033;-82
2021/09/19 02:25:38;;;;;;;23.88;15.75;;;;;;;13.89;100.00;97277.78;5016987;28;20040;-82
2021/09/19 02:28:03;;;;;;;23.30;15.50;;;;;;;13.95;100.00;97289.88;5000210;28;20045;-82
2021/09/19 02:30:38;;;;;;;23.20;15.30;;;;;;;14.05;100.00;97307.84;5001237;28;20036;-82
2021/09/19 02:33:04;;;;;;;21.52;15.07;;;;;;;13.88;100.00;97275.19;4995275;28;20583;-81
2021/09/19 02:35:30;;;;;;;25.42;15.90;;;;;;;13.92;100.00;97293.66;4961020;28;20125;-80
2021/09/19 02:37:55;;;;;;;20.23;14.40;;;;;;;14.05;100.00;97304.31;4976301;28;20437;-81
2021/09/19 02:40:21;;;;;;;19.00;13.98;;;;;;;13.88;100.00;97277.88;4976854;28;20441;-80
2021/09/19 02:42:50;;;;;;;22.42;14.90;;;;;;;14.07;100.00;97313.09;4952555;28;20038;-81
2021/09/19 02:45:16;;;;;;;20.20;13.60;;;;;;;13.96;100.00;97283.53;4992317;28;20050;-81
2021/09/19 02:47:42;;;;;;;22.10;13.30;;;;;;;14.12;100.00;97297.44;4976751;28;20454;-80
2021/09/19 02:50:08;;;;;;;20.30;13.13;;;;;;;14.23;100.00;97291.22;4992417;28;20022;-80
2021/09/19 02:52:34;;;;;;;21.42;14.00;;;;;;;14.27;100.00;97293.53;4976458;28;20493;-79
2021/09/19 02:55:00;;;;;;;20.52;14.02;;;;;;;14.38;100.00;97311.53;4975864;28;20037;-79
2021/09/19 02:57:25;;;;;;;16.58;12.80;;;;;;;14.36;100.00;97298.22;4976252;28;20026;-80
2021/09/19 02:59:51;;;;;;;19.15;13.65;;;;;;;14.49;100.00;97312.34;4992647;28;20030;-81
2021/09/19 03:02:16;;;;;;;18.52;12.82;;;;;;;14.60;100.00;97315.06;4992258;28;20133;-79
2021/09/19 03:04:42;;;;;;;18.67;13.90;;;;;;;14.55;100.00;97287.63;5007464;28;20501;-79
2021/09/19 03:07:07;;;;;;;18.75;13.50;;;;;;;14.69;100.00;97294.59;4999386;28;20061;-79
2021/09/19 03:09:33;;;;;;;19.23;12.68;;;;;;;14.67;100.00;97283.09;5015620;28;20080;-80
2021/09/19 03:11:59;;;;;;;20.02;14.00;;;;;;;14.78;100.00;97309.97;4999585;28;20065;-80
2021/09/19 03:14:24;;;;;;;20.77;13.82;;;;;;;14.81;100.00;97307.03;5015770;28;20032;-80
2021/09/19 03:16:50;;;;;;;19.67;14.18;;;;;;;14.74;100.00;97307.66;5015705;28;20033;-80
2021/09/19 03:19:15;;;;;;;25.88;14.80;;;;;;;14.88;100.00;97326.25;5015578;28;20045;-80
2021/09/19 03:21:59;;;;;;;23.23;13.77;;;;;;;14.90;100.00;97324.25;5014305;28;20025;-80
2021/09/19 03:24:25;;;;;;;19.85;13.35;;;;;;;14.76;100.00;97298.50;5033414;28;20076;-81
2021/09/19 03:26:51;;;;;;;24.02;14.70;;;;;;;14.66;100.00;97308.31;5015930;28;20501;-80
2021/09/19 03:29:16;;;;;;;21.42;14.30;;;;;;;14.53;100.00;97299.50;5015558;28;20556;-80
2021/09/19 03:31:42;;;;;;;21.58;14.35;;;;;;;14.42;100.00;97321.06;5015585;28;20088;-80
2021/09/19 03:34:07;;;;;;;26.50;15.55;;;;;;;14.50;100.00;97332.06;4999213;28;20044;-82
2021/09/19 03:36:33;;;;;;;19.15;14.18;;;;;;;14.47;100.00;97311.66;5033382;28;20056;-82
2021/09/19 03:38:58;;;;;;;20.42;14.23;;;;;;;14.35;100.00;97277.66;4999198;28;20033;-81
2021/09/19 03:41:24;;;;;;;21.77;13.98;;;;;;;14.39;100.00;97284.50;5015148;28;20029;-81
2021/09/19 03:43:50;;;;;;;21.40;14.23;;;;;;;14.43;100.00;97298.53;4999559;28;20091;-80
2021/09/19 03:46:16;;;;;;;19.75;13.45;;;;;;;14.52;100.00;97312.09;5015415;28;20021;-81
2021/09/19 03:48:41;;;;;;;17.60;13.30;;;;;;;14.65;100.00;97310.13;5015436;28;20090;-80
2021/09/19 03:51:07;;;;;;;21.02;14.77;;;;;;;14.52;100.00;97282.50;5032844;28;20033;-80
2021/09/19 03:53:32;;;;;;;20.30;14.43;;;;;;;14.68;100.00;97297.41;5015104;28;20519;-80
2021/09/19 03:55:58;;;;;;;23.08;14.82;;;;;;;14.51;100.00;97270.06;5014457;28;20083;-80
2021/09/19 03:58:23;;;;;;;19.83;14.40;;;;;;;14.76;100.00;97300.34;5014865;28;20039;-80
2021/09/19 04:00:49;;;;;;;20.92;13.93;;;;;;;14.82;100.00;97300.69;5015191;28;20029;-81
2021/09/19 04:03:14;;;;;;;19.23;13.70;;;;;;;14.81;100.00;97298.09;5032693;28;20472;-82
2021/09/19 04:05:40;;;;;;;21.55;13.93;;;;;;;14.59;100.00;97278.34;5015744;28;20028;-81
2021/09/19 04:08:06;;;;;;;21.80;15.43;;;;;;;14.79;100.00;97300.06;4998815;28;20037;-81
2021/09/19 04:10:32;;;;;;;24.63;15.18;;;;;;;14.83;100.00;97306.91;4998619;28;20025;-81
2021/09/19 04:12:57;;;;;;;23.13;14.93;;;;;;;14.91;100.00;97301.75;5015075;28;20481;-81
2021/09/19 04:15:23;;;;;;;23.92;14.38;;;;;;;15.04;100.00;97313.22;4998443;28;20559;-81
2021/09/19 04:17:48;;;;;;;18.70;13.32;;;;;;;15.00;100.00;97301.84;5015204;28;20041;-81
2021/09/19 04:20:14;;;;;;;21.80;14.10;;;;;;;14.96;100.00;97318.38;5032843;28;20088;-81
2021/09/19 04:22:40;;;;;;;20.55;13.98;;;;;;;14.94;100.00;97305.03;5014785;28;20484;-80
2021/09/19 04:25:07;;;;;;;21.95;14.25;;;;;;;15.11;100.00;97331.41;5015272;28;20053;-81
2021/09/19 04:27:33;;;;;;;22.58;15.13;;;;;;;15.16;100.00;97325.66;5014703;28;20044;-80
2021/09/19 04:29:59;;;;;;;19.25;14.10;;;;;;;14.91;100.00;97301.75;5015049;28;20488;-81
2021/09/19 04:32:24;;;;;;;28.30;16.30;;;;;;;15.08;100.00;97328.13;5014552;28;20484;-81
2021/09/19 04:34:50;;;;;;;28.63;15.27;;;;;;;15.01;100.00;97308.91;4998102;28;20034;-82
2021/09/19 04:37:16;;;;;;;23.90;14.98;;;;;;;15.06;100.00;97313.94;5014565;28;20511;-82
2021/09/19 04:39:43;;;;;;;27.08;16.20;;;;;;;15.05;100.00;97309.53;5014421;28;20029;-81
2021/09/19 04:42:09;;;;;;;24.08;16.25;;;;;;;15.17;100.00;97316.56;5014240;28;20138;-81
2021/09/19 04:44:34;;;;;;;29.17;17.23;;;;;;;15.10;100.00;97339.66;5014303;28;20112;-81
2021/09/19 04:47:00;;;;;;;23.83;17.10;;;;;;;14.90;100.00;97326.97;5031710;28;20029;-81
2021/09/19 04:49:25;;;;;;;31.08;18.75;;;;;;;14.86;100.00;97320.97;4997608;28;20534;-80
2021/09/19 04:51:51;;;;;;;29.35;17.92;;;;;;;14.84;100.00;97332.84;5032190;28;20385;-81
2021/09/19 04:54:16;;;;;;;33.25;20.08;;;;;;;14.89;100.00;97336.88;5014696;28;20033;-81
2021/09/19 04:56:42;;;;;;;25.77;17.63;;;;;;;14.88;100.00;97337.00;4998236;28;20394;-81
2021/09/19 04:59:08;;;;;;;27.90;17.77;;;;;;;14.79;100.00;97352.09;5014945;28;20445;-81
2021/09/19 05:01:33;;;;;;;27.23;17.45;;;;;;;14.73;100.00;97349.03;5016889;28;20575;-81
2021/09/19 05:03:59;;;;;;;26.95;17.38;;;;;;;14.79;100.00;97341.31;5017126;28;20108;-81
2021/09/19 05:06:24;;;;;;;24.40;16.38;;;;;;;14.96;100.00;97345.31;4999239;28;20022;-82
2021/09/19 05:08:50;;;;;;;25.95;15.95;;;;;;;14.98;100.00;97333.41;5014613;28;21065;-81
2021/09/19 05:11:15;;;;;;;19.42;14.80;;;;;;;15.08;100.00;97352.38;4997347;28;20033;-81
2021/09/19 05:13:41;;;;;;;24.80;14.43;;;;;;;14.78;100.00;97327.97;4997388;28;20139;-81
2021/09/19 05:16:06;;;;;;;22.10;15.00;;;;;;;14.70;100.00;97339.38;5014685;28;20477;-81
2021/09/19 05:18:32;;;;;;;25.27;16.77;;;;;;;14.69;100.00;97348.44;5014741;28;20071;-81
2021/09/19 05:20:58;;;;;;;21.63;15.55;;;;;;;14.53;100.00;97327.28;5015184;28;20067;-81
2021/09/19 05:23:23;;;;;;;20.63;14.40;;;;;;;14.37;100.00;97312.50;5032583;28;20037;-81
2021/09/19 05:25:49;;;;;;;23.92;15.82;;;;;;;14.31;100.00;97310.28;4981597;28;20488;-80
2021/09/19 05:28:14;;;;;;;23.63;15.77;;;;;;;14.47;100.00;97333.19;4997684;28;20029;-80
2021/09/19 05:30:40;;;;;;;23.58;15.23;;;;;;;14.69;100.00;97339.50;5014520;28;20100;-80
2021/09/19 05:33:05;;;;;;;23.65;16.00;;;;;;;14.66;100.00;97324.47;5014295;28;20049;-81
2021/09/19 05:35:31;;;;;;;53.83;32.05;;;;;;;14.71;100.00;97321.38;4998700;28;20034;-80
2021/09/19 05:37:56;;;;;;;62.58;41.35;;;;;;;14.59;100.00;97297.19;4998760;28;20029;-80
2021/09/19 05:40:22;;;;;;;59.70;38.40;;;;;;;14.73;100.00;97301.44;4998068;28;20421;-80
2021/09/19 05:42:47;;;;;;;60.88;37.08;;;;;;;14.77;100.00;97291.25;5013751;28;20069;-80
2021/09/19 05:45:13;;;;;;;56.33;35.78;;;;;;;15.20;100.00;97308.22;4997927;28;20021;-80
2021/09/19 05:47:39;;;;;;;41.00;28.45;;;;;;;16.45;100.00;97317.09;4997463;28;20021;-80
2021/09/19 05:50:06;;;;;;;33.95;24.25;;;;;;;17.25;100.00;97331.38;5013866;28;20037;-80
2021/09/19 05:52:31;;;;;;;35.17;23.50;;;;;;;17.05;100.00;97299.91;5013892;28;20042;-80
2021/09/19 05:54:57;;;;;;;44.85;30.02;;;;;;;16.86;100.00;97314.25;4997227;28;20030;-80
2021/09/19 05:57:22;;;;;;;37.10;24.30;;;;;;;16.53;100.00;97293.81;5033807;28;20033;-80
2021/09/19 05:59:49;;;;;;;36.78;24.33;;;;;;;16.46;100.00;97313.41;4998784;28;20030;-80
2021/09/19 06:02:14;;;;;;;33.83;24.50;;;;;;;16.77;100.00;97291.63;4998780;28;20056;-80
2021/09/19 06:04:40;;;;;;;29.42;19.90;;;;;;;17.26;100.00;97292.53;5032464;28;20405;-80
2021/09/19 06:07:05;;;;;;;26.95;18.15;;;;;;;18.07;97.85;97293.84;5032161;28;20519;-81
2021/09/19 06:09:31;;;;;;;23.52;15.23;;;;;;;18.90;86.42;97297.31;5015879;28;20025;-80
2021/09/19 06:11:56;;;;;;;24.13;17.15;;;;;;;18.52;88.28;97278.56;4997406;28;20029;-80
2021/09/19 06:14:22;;;;;;;29.70;18.90;;;;;;;18.47;90.15;97313.38;5015252;28;20030;-80
2021/09/19 06:16:47;;;;;;;26.50;17.02;;;;;;;18.29;93.39;97320.56;5008682;28;20034;-80
2021/09/19 06:19:16;;;;;;;29.08;16.33;;;;;;;18.22;91.01;97305.91;5002681;28;20080;-81
2021/09/19 06:21:41;;;;;;;24.50;16.20;;;;;;;17.81;91.70;97305.31;4998020;28;20032;-79
2021/09/19 06:24:07;;;;;;;22.58;16.20;;;;;;;17.92;91.31;97306.16;5017581;28;20345;-84
2021/09/19 06:26:33;;;;;;;27.65;15.75;;;;;;;18.13;92.98;97293.25;5004440;28;20040;-83
2021/09/19 06:28:58;;;;;;;21.95;15.88;;;;;;;18.18;92.44;97278.28;4998209;28;20428;-84
2021/09/19 06:31:24;;;;;;;21.45;14.98;;;;;;;18.46;91.03;97308.94;5032725;28;20488;-86
2021/09/19 06:33:50;;;;;;;20.63;13.80;;;;;;;18.66;88.27;97329.56;5017324;28;20088;-83
2021/09/19 06:36:15;;;;;;;29.48;18.55;;;;;;;18.16;88.92;97296.53;5017489;28;20025;-80
2021/09/19 06:38:41;;;;;;;23.48;17.00;;;;;;;18.21;91.26;97328.59;5034942;28;20411;-80
2021/09/19 06:41:06;;;;;;;23.35;15.05;;;;;;;18.19;93.41;97323.31;5017436;28;20032;-80
2021/09/19 06:43:32;;;;;;;24.85;17.10;;;;;;;18.36;93.77;97335.22;5017241;28;20408;-80
2021/09/19 06:45:57;;;;;;;27.80;17.80;;;;;;;18.39;93.46;97338.47;5017133;28;20481;-81
2021/09/19 06:48:23;;;;;;;26.35;17.98;;;;;;;18.70;92.15;97354.50;5002799;28;20025;-82
2021/09/19 06:50:48;;;;;;;24.38;16.00;;;;;;;18.68;91.31;97349.22;5018972;28;20382;-81
2021/09/19 06:53:14;;;;;;;21.27;14.93;;;;;;;18.62;90.25;97341.69;5018467;28;20485;-81
2021/09/19 06:55:39;;;;;;;23.80;13.52;;;;;;;18.80;89.96;97344.44;5018193;28;20022;-79
2021/09/19 06:58:05;;;;;;;19.60;14.40;;;;;;;18.83;87.55;97366.69;5038423;28;20030;-83
2021/09/19 07:00:30;;;;;;;19.45;15.18;;;;;;;18.64;89.64;97361.34;5020658;28;20029;-82
2021/09/19 07:02:56;;;;;;;19.95;14.70;;;;;;;18.35;91.66;97345.22;5016306;28;20460;-81
2021/09/19 07:05:22;;;;;;;18.67;14.35;;;;;;;18.48;91.32;97347.59;5015992;28;20132;-79
2021/09/19 07:07:47;;;;;;;16.83;12.02;;;;;;;18.17;89.81;97290.13;4981130;28;20033;-79
2021/09/19 07:10:13;;;;;;;22.83;14.20;;;;;;;18.23;90.29;97335.56;4996813;28;20116;-79
2021/09/19 07:12:39;;;;;;;20.40;15.07;;;;;;;18.27;93.20;97364.03;5014395;28;20030;-79
2021/09/19 07:15:06;;;;;;;42.55;24.83;;;;;;;18.17;94.45;97382.19;4980530;28;20060;-79
2021/09/19 07:17:32;;;;;;;25.02;16.67;;;;;;;17.91;98.43;97354.00;4981014;28;20025;-80
2021/09/19 07:19:59;;;;;;;24.83;17.50;;;;;;;17.96;98.38;97343.63;4997278;28;20045;-80
2021/09/19 07:22:26;;;;;;;22.35;13.75;;;;;;;18.26;96.06;97381.31;4997122;28;20029;-79
2021/09/19 07:24:52;;;;;;;19.35;14.23;;;;;;;18.01;96.70;97351.28;5007582;28;20029;-84
2021/09/19 07:27:17;;;;;;;25.65;13.13;;;;;;;17.83;98.36;97343.91;5017046;28;20030;-86
2021/09/19 07:29:43;;;;;;;18.60;11.38;;;;;;;18.04;94.85;97359.09;5009918;28;20108;-85
2021/09/19 07:32:12;;;;;;;15.82;9.50;;;;;;;17.69;92.08;97284.81;5014364;28;20530;-85
2021/09/19 07:34:38;;;;;;;14.93;10.05;;;;;;;18.28;92.15;97375.72;5016392;28;20164;-79
2021/09/19 07:37:06;;;;;;;12.98;10.73;;;;;;;18.88;91.25;97382.53;4999571;28;20065;-79
2021/09/19 07:39:32;;;;;;;14.38;10.73;;;;;;;19.01;86.47;97357.78;5016201;28;20100;-78
2021/09/19 07:41:58;;;;;;;13.80;10.45;;;;;;;19.42;83.71;97370.78;5034120;28;20502;-79
2021/09/19 07:44:24;;;;;;;17.45;10.75;;;;;;;19.41;85.01;97366.38;4999131;28;20132;-79
2021/09/19 07:46:50;;;;;;;13.80;9.25;;;;;;;19.47;83.33;97363.06;5015605;28;20025;-80
2021/09/19 07:49:20;;;;;;;12.70;9.65;;;;;;;19.29;83.10;97348.56;5016100;28;20029;-80
2021/09/19 07:51:46;;;;;;;11.32;9.18;;;;;;;19.45;82.27;97356.91;4999762;28;20033;-80
2021/09/19 07:54:12;;;;;;;12.75;9.32;;;;;;;19.84;82.29;97352.84;5016091;28;20032;-80
2021/09/19 07:56:38;;;;;;;13.45;9.65;;;;;;;20.10;82.12;97352.88;5016069;28;20029;-81
2021/09/19 07:59:04;;;;;;;11.00;8.88;;;;;;;20.28;80.64;97363.72;5015779;28;20083;-81
2021/09/19 08:01:30;;;;;;;10.15;8.48;;;;;;;20.56;76.28;97346.25;5015731;28;20041;-81
2021/09/19 08:03:55;;;;;;;9.20;8.20;;;;;;;20.21;75.22;97313.75;5015723;28;20116;-81
2021/09/19 08:06:22;;;;;;;10.43;8.60;;;;;;;20.42;76.62;97385.75;5015766;28;20515;-83
2021/09/19 08:08:48;;;;;;;10.98;8.27;;;;;;;20.33;75.67;97354.09;5016421;28;20025;-81
2021/09/19 08:11:26;;;;;;;10.05;8.38;;;;;;;20.18;80.54;97401.00;5016284;28;20490;-82
2021/09/19 08:13:56;;;;;;;12.38;8.20;;;;;;;19.99;80.99;97381.13;4996633;28;20556;-81
2021/09/19 08:16:21;;;;;;;13.77;8.60;;;;;;;19.72;80.86;97394.81;4992133;28;20056;-79
2021/09/19 08:18:47;;;;;;;12.52;9.02;;;;;;;19.75;84.21;97391.78;5009371;28;20416;-82
2021/09/19 08:24:54;;;;;;;17.85;10.65;;;;;;;19.55;84.74;97403.81;5034254;28;20139;-82
2021/09/19 08:27:30;;;;;;;15.07;8.85;;;;;;;19.10;89.26;97351.44;5016154;28;20035;-84
2021/09/19 08:29:56;;;;;;;16.20;10.55;;;;;;;19.33;90.61;97406.94;5012422;28;20551;-84
2021/09/19 08:32:23;;;;;;;26.98;17.90;;;;;;;19.40;91.37;97397.22;5011991;28;20124;-83
2021/09/19 08:34:48;;;;;;;10.90;8.73;;;;;;;19.63;85.40;97392.19;4995297;28;20029;-83
2021/09/19 08:37:15;;;;;;;10.82;8.68;;;;;;;19.46;81.16;97372.19;5011144;28;20496;-82
2021/09/19 08:39:41;;;;;;;11.30;8.32;;;;;;;19.63;80.42;97387.59;4994819;28;20021;-83
2021/09/19 08:42:06;;;;;;;8.93;7.38;;;;;;;20.01;78.91;97400.00;5012059;28;20444;-80
2021/09/19 08:44:32;;;;;;;9.57;7.55;;;;;;;20.16;79.64;97364.97;5004055;28;20123;-85
2021/09/19 08:46:59;;;;;;;10.00;8.18;;;;;;;20.76;78.64;97395.81;4997607;28;20021;-81
2021/09/19 08:49:25;;;;;;;15.75;7.50;;;;;;;20.89;73.27;97347.25;4997298;28;20037;-82
2021/09/19 08:51:51;;;;;;;9.98;7.72;;;;;;;20.93;72.51;97335.88;5013851;28;20499;-85
2021/09/19 08:54:19;;;;;;;11.32;8.95;;;;;;;20.98;71.82;97325.34;5013188;28;20087;-83
2021/09/19 08:56:48;;;;;;;17.35;11.82;;;;;;;22.47;70.09;97387.84;5014581;28;20021;-84
2021/09/19 08:59:14;;;;;;;10.82;8.40;;;;;;;22.79;66.79;97381.50;5014396;28;20120;-84
2021/09/19 09:02:01;;;;;;;14.98;8.68;;;;;;;22.49;65.68;97394.81;5014527;28;20025;-84
2021/09/19 09:04:27;;;;;;;9.80;7.35;;;;;;;22.77;64.58;97389.84;4998128;28;20040;-85
2021/09/19 09:06:53;;;;;;;14.10;8.57;;;;;;;22.50;69.54;97384.78;4998075;28;20120;-85
2021/09/19 09:09:19;;;;;;;10.63;7.50;;;;;;;22.15;67.40;97361.47;4999792;28;20036;-86
2021/09/19 09:12:04;;;;;;;8.57;7.10;;;;;;;21.96;69.31;97380.91;4979723;28;20038;-86
2021/09/19 09:14:39;;;;;;;8.98;7.63;;;;;;;22.18;69.31;97380.19;4986055;28;20482;-85
2021/09/19 09:17:12;;;;;;;15.25;8.10;;;;;;;22.24;68.67;97357.72;4977681;28;20058;-85
2021/09/19 09:19:39;;;;;;;9.63;7.30;;;;;;;23.11;63.11;97354.94;4994260;28;20064;-83
2021/09/19 09:22:05;;;;;;;8.55;7.15;;;;;;;24.64;59.25;97358.41;4976706;28;20481;-84
2021/09/19 09:24:31;;;;;;;9.13;6.70;;;;;;;25.53;52.21;97345.56;5007750;28;20065;-84
2021/09/19 09:26:56;;;;;;;11.32;6.88;;;;;;;24.84;54.81;97336.84;4991854;28;20101;-84
2021/09/19 09:29:23;;;;;;;8.10;7.30;;;;;;;25.30;53.23;97360.22;4991370;28;20383;-84
2021/09/19 09:31:51;;;;;;;7.90;7.00;;;;;;;25.29;51.25;97346.72;4979221;28;20041;-82
2021/09/19 09:34:19;;;;;;;10.43;7.82;;;;;;;24.60;54.32;97361.72;4996608;28;20516;-82
2021/09/19 09:36:52;;;;;;;11.30;8.48;;;;;;;24.02;59.44;97363.28;4994557;28;20034;-83
2021/09/19 09:39:40;;;;;;;12.80;8.50;;;;;;;24.70;55.23;97352.19;4978132;28;20030;-82
2021/09/19 09:45:01;;;;;;;8.20;6.28;;;;;;;25.33;53.96;97343.41;4992122;28;20153;-83
2021/09/19 09:47:28;;;;;;;7.80;6.60;;;;;;;26.33;49.63;97305.88;4992986;28;20054;-84
2021/09/19 09:49:59;;;;;;;8.77;5.88;;;;;;;27.43;47.70;97328.75;5007860;28;20033;-84
2021/09/19 09:52:32;;;;;;;6.25;5.65;;;;;;;27.82;46.65;97332.63;4991604;28;20092;-85
2021/09/19 09:55:04;;;;;;;8.20;6.30;;;;;;;28.42;44.33;97320.66;4994773;28;20030;-84
2021/09/19 09:57:36;;;;;;;7.95;5.60;;;;;;;29.10;44.53;97321.22;4995839;28;20045;-84
2021/09/19 10:00:12;;;;;;;6.68;5.90;;;;;;;27.97;45.91;97314.91;5012430;28;20117;-84
2021/09/19 10:02:43;;;;;;;6.60;5.78;;;;;;;28.42;45.89;97309.66;4995679;28;20477;-84
2021/09/19 10:05:11;;;;;;;7.13;5.43;;;;;;;27.71;47.73;97325.00;4995947;28;20062;-83
2021/09/19 10:07:38;;;;;;;9.57;5.90;;;;;;;27.07;49.41;97308.06;5012089;28;20030;-84
2021/09/19 10:10:06;;;;;;;5.60;5.10;;;;;;;27.75;49.61;97320.78;5012126;28;20489;-85
2021/09/19 10:12:32;;;;;;;9.48;5.50;;;;;;;27.92;47.63;97300.94;5005231;28;20032;-83
2021/09/19 10:14:58;;;;;;;8.63;6.20;;;;;;;28.13;47.80;97301.81;4995890;28;20482;-83
2021/09/19 10:17:25;;;;;;;8.73;7.70;;;;;;;27.53;50.18;97328.34;5004548;28;20477;-84
2021/09/19 10:19:52;;;;;;;10.00;7.28;;;;;;;27.04;51.17;97305.72;4993852;28;20095;-85
2021/09/19 10:22:29;;;;;;;8.77;7.50;;;;;;;26.12;52.27;97314.09;4997017;28;20040;-84
2021/09/19 10:24:54;;;;;;;9.73;7.68;;;;;;;26.04;53.18;97297.81;4979905;28;20029;-84
2021/09/19 10:27:23;;;;;;;8.70;7.80;;;;;;;25.86;51.32;97289.22;4999925;28;20532;-84
2021/09/19 10:30:05;;;;;;;8.02;7.13;;;;;;;25.62;52.38;97287.72;4981446;28;20042;-84
2021/09/19 10:32:36;;;;;;;9.93;7.03;;;;;;;25.98;52.07;97276.66;4982584;28;20046;-84
2021/09/19 10:35:30;;;;;;;10.45;7.07;;;;;;;25.51;51.94;97241.66;4992742;28;20035;-84
2021/09/19 10:38:04;;;;;;;9.13;7.53;;;;;;;25.51;55.18;97290.09;5003499;28;20042;-84
2021/09/19 10:40:30;;;;;;;9.02;6.80;;;;;;;25.69;54.03;97279.53;4982263;28;20510;-83
2021/09/19 10:42:56;;;;;;;9.27;6.93;;;;;;;26.01;52.23;97239.78;5001144;28;20054;-84
2021/09/19 10:45:22;;;;;;;22.50;16.27;;;;;;;26.76;51.09;97273.63;4983588;28;20375;-84
2021/09/19 10:47:57;;;;;;;11.52;6.85;;;;;;;27.12;50.94;97284.41;4981140;28;20022;-85
2021/09/19 10:50:31;;;;;;;8.68;7.07;;;;;;;27.08;51.05;97285.88;4992888;28;20019;-84
2021/09/19 10:53:05;;;;;;;9.35;7.03;;;;;;;27.44;50.57;97280.09;4993356;28;20116;-84
2021/09/19 10:55:48;;;;;;;9.45;7.18;;;;;;;27.66;47.95;97276.13;5009593;28;20424;-84
2021/09/19 10:58:19;;;;;;;11.45;7.53;;;;;;;26.96;50.67;97264.69;4974956;28;20038;-85
2021/09/19 11:01:36;;;;;;;11.70;7.68;;;;;;;27.86;48.21;97267.94;4988563;28;20032;-85
2021/09/19 11:04:10;;;;;;;8.32;6.00;;;;;;;30.38;41.83;97249.16;4971443;28;20089;-84
2021/09/19 11:06:37;;;;;;;5.95;5.35;;;;;;;30.73;41.17;97233.75;4989114;28;20153;-84
2021/09/19 11:09:20;;;;;;;13.18;6.15;;;;;;;30.72;41.46;97261.59;5004446;28;20034;-85
2021/09/19 11:12:12;;;;;;;8.60;5.40;;;;;;;30.59;41.09;97263.41;5010934;28;20100;-81
2021/09/19 11:14:56;;;;;;;9.07;5.55;;;;;;;29.89;42.14;97256.38;5006664;28;20077;-82
2021/09/19 11:17:24;;;;;;;6.57;5.20;;;;;;;29.34;42.99;97257.97;4994570;28;20077;-83
2021/09/19 11:20:21;;;;;;;6.57;5.28;;;;;;;29.16;43.59;97257.81;5001312;28;20045;-84
2021/09/19 11:22:49;;;;;;;8.15;5.63;;;;;;;29.17;45.99;97258.63;5010096;28;20066;-84
2021/09/19 11:25:16;;;;;;;12.70;5.45;;;;;;;28.39;45.42;97253.13;4998381;28;20030;-84